sensor_id;sensor_type;location;lat;lon;timestamp;pressure;altitude;pressure_sealevel;temperature;humidity
60589;BME280;46421;48.610;9.334;2022-07-23T00:01:15;98099.06;;;19.71;100.00
60589;BME280;46421;48.610;9.334;2022-07-23T00:03:40;98095.69;;;19.88;100.00
60589;BME280;46421;48.610;9.334;2022-07-23T00:06:05;98081.16;;;19.89;100.00
60589;BME280;46421;48.610;9.334;2022-07-23T00:08:31;98044.91;;;19.85;100.00
60589;BME280;46421;48.610;9.334;2022-07-23T00:10:56;98037.00;;;19.83;100.00
60589;BME280;46421;48.610;9.334;2022-07-23T00:13:21;98051.81;;;19.81;100.00
60589;BME280;46421;48.610;9.334;2022-07-23T00:15:46;98069.75;;;19.99;100.00
60589;BME280;46421;48.610;9.334;2022-07-23T00:18:12;98081.56;;;20.21;100.00
60589;BME280;46421;48.610;9.334;2022-07-23T00:20:37;98069.97;;;20.50;100.00
60589;BME280;46421;48.610;9.334;2022-07-23T00:23:02;98069.44;;;20.65;100.00
60589;BME280;46421;48.610;9.334;2022-07-23T00:25:28;98054.06;;;20.65;100.00
60589;BME280;46421;48.610;9.334;2022-07-23T00:27:53;98037.09;;;20.82;98.59
60589;BME280;46421;48.610;9.334;2022-07-23T00:30:18;98038.28;;;21.20;91.50
60589;BME280;46421;48.610;9.334;2022-07-23T00:32:52;98046.94;;;21.56;87.05
60589;BME280;46421;48.610;9.334;2022-07-23T00:35:20;98032.75;;;21.66;83.95
60589;BME280;46421;48.610;9.334;2022-07-23T00:37:45;98024.84;;;21.82;85.14
60589;BME280;46421;48.610;9.334;2022-07-23T00:40:11;98044.13;;;21.85;86.62
60589;BME280;46421;48.610;9.334;2022-07-23T00:42:37;98034.63;;;22.05;85.23
60589;BME280;46421;48.610;9.334;2022-07-23T00:45:03;98042.50;;;22.06;82.82
60589;BME280;46421;48.610;9.334;2022-07-23T00:47:29;98038.47;;;22.09;85.00
60589;BME280;46421;48.610;9.334;2022-07-23T00:49:54;98032.66;;;21.78;86.91
60589;BME280;46421;48.610;9.334;2022-07-23T00:52:19;98045.63;;;21.42;89.64
60589;BME280;46421;48.610;9.334;2022-07-23T00:54:45;98026.31;;;21.16;90.30
60589;BME280;46421;48.610;9.334;2022-07-23T00:57:10;98037.38;;;20.97;91.07
60589;BME280;46421;48.610;9.334;2022-07-23T00:59:38;98050.28;;;20.78;93.20
60589;BME280;46421;48.610;9.334;2022-07-23T01:02:03;98047.69;;;20.72;92.77
60589;BME280;46421;48.610;9.334;2022-07-23T01:04:29;98050.16;;;20.73;93.31
60589;BME280;46421;48.610;9.334;2022-07-23T01:06:54;98042.50;;;20.82;93.42
60589;BME280;46421;48.610;9.334;2022-07-23T01:09:19;98043.66;;;20.86;92.36
60589;BME280;46421;48.610;9.334;2022-07-23T01:11:45;98031.78;;;20.87;90.08
60589;BME280;46421;48.610;9.334;2022-07-23T01:14:12;98029.00;;;20.99;89.60
60589;BME280;46421;48.610;9.334;2022-07-23T01:16:38;98019.63;;;21.19;85.46
60589;BME280;46421;48.610;9.334;2022-07-23T01:19:04;98019.19;;;20.93;85.56
60589;BME280;46421;48.610;9.334;2022-07-23T01:21:30;98024.19;;;21.01;83.88
60589;BME280;46421;48.610;9.334;2022-07-23T01:23:55;98040.81;;;21.10;83.72
60589;BME280;46421;48.610;9.334;2022-07-23T01:26:21;98042.78;;;21.31;83.39
60589;BME280;46421;48.610;9.334;2022-07-23T01:28:46;98022.47;;;21.46;82.99
60589;BME280;46421;48.610;9.334;2022-07-23T01:31:11;98005.91;;;21.25;84.38
60589;BME280;46421;48.610;9.334;2022-07-23T01:33:36;98022.13;;;21.25;88.63
60589;BME280;46421;48.610;9.334;2022-07-23T01:36:02;98001.44;;;21.14;89.18
60589;BME280;46421;48.610;9.334;2022-07-23T01:38:27;97979.13;;;20.90;88.34
60589;BME280;46421;48.610;9.334;2022-07-23T01:40:52;97956.59;;;20.67;90.07
60589;BME280;46421;48.610;9.334;2022-07-23T01:43:18;97937.69;;;20.67;90.20
60589;BME280;46421;48.610;9.334;2022-07-23T01:45:43;97933.41;;;20.83;90.28
60589;BME280;46421;48.610;9.334;2022-07-23T01:48:08;97924.19;;;20.84;87.00
60589;BME280;46421;48.610;9.334;2022-07-23T01:50:33;97949.28;;;20.79;85.39
60589;BME280;46421;48.610;9.334;2022-07-23T01:52:59;97957.44;;;20.67;85.45
60589;BME280;46421;48.610;9.334;2022-07-23T01:55:24;97972.69;;;20.74;87.37
60589;BME280;46421;48.610;9.334;2022-07-23T01:57:49;97983.88;;;20.99;86.43
60589;BME280;46421;48.610;9.334;2022-07-23T02:00:15;97991.09;;;21.28;87.50
60589;BME280;46421;48.610;9.334;2022-07-23T02:02:40;97995.91;;;21.43;82.55
60589;BME280;46421;48.610;9.334;2022-07-23T02:05:06;98007.88;;;21.64;80.57
60589;BME280;46421;48.610;9.334;2022-07-23T02:07:31;98010.59;;;21.86;78.72
60589;BME280;46421;48.610;9.334;2022-07-23T02:09:56;98003.94;;;21.94;81.44
60589;BME280;46421;48.610;9.334;2022-07-23T02:12:22;98014.44;;;21.90;80.62
60589;BME280;46421;48.610;9.334;2022-07-23T02:14:47;98015.81;;;21.93;81.08
60589;BME280;46421;48.610;9.334;2022-07-23T02:17:12;98018.00;;;22.18;81.38
60589;BME280;46421;48.610;9.334;2022-07-23T02:19:37;98014.88;;;22.04;78.14
60589;BME280;46421;48.610;9.334;2022-07-23T02:22:03;98023.56;;;21.84;79.49
60589;BME280;46421;48.610;9.334;2022-07-23T02:24:28;98030.38;;;21.70;81.88
60589;BME280;46421;48.610;9.334;2022-07-23T02:26:53;98049.25;;;21.30;84.03
60589;BME280;46421;48.610;9.334;2022-07-23T02:29:19;98052.28;;;21.17;85.21
60589;BME280;46421;48.610;9.334;2022-07-23T02:31:44;98062.66;;;20.91;85.71
60589;BME280;46421;48.610;9.334;2022-07-23T02:34:09;98064.94;;;20.70;87.69
60589;BME280;46421;48.610;9.334;2022-07-23T02:36:34;98075.91;;;20.76;88.58
60589;BME280;46421;48.610;9.334;2022-07-23T02:39:00;98078.44;;;20.70;88.44
60589;BME280;46421;48.610;9.334;2022-07-23T02:41:25;98084.25;;;20.62;87.81
60589;BME280;46421;48.610;9.334;2022-07-23T02:43:50;98081.41;;;20.69;88.10
60589;BME280;46421;48.610;9.334;2022-07-23T02:46:16;98091.84;;;20.77;88.27
60589;BME280;46421;48.610;9.334;2022-07-23T02:48:41;98086.75;;;20.52;89.36
60589;BME280;46421;48.610;9.334;2022-07-23T02:51:06;98092.00;;;20.59;89.91
60589;BME280;46421;48.610;9.334;2022-07-23T02:53:31;98085.63;;;20.65;90.63
60589;BME280;46421;48.610;9.334;2022-07-23T02:55:57;98089.84;;;20.44;89.53
60589;BME280;46421;48.610;9.334;2022-07-23T02:58:22;98091.59;;;20.38;90.63
60589;BME280;46421;48.610;9.334;2022-07-23T03:00:47;98089.16;;;20.65;89.20
60589;BME280;46421;48.610;9.334;2022-07-23T03:03:13;98101.44;;;20.44;87.44
60589;BME280;46421;48.610;9.334;2022-07-23T03:05:38;98101.69;;;20.72;87.40
60589;BME280;46421;48.610;9.334;2022-07-23T03:08:04;98092.06;;;20.88;86.44
60589;BME280;46421;48.610;9.334;2022-07-23T03:10:29;98090.69;;;21.02;85.88
60589;BME280;46421;48.610;9.334;2022-07-23T03:12:54;98090.97;;;20.89;86.22
60589;BME280;46421;48.610;9.334;2022-07-23T03:15:20;98098.06;;;20.66;86.87
60589;BME280;46421;48.610;9.334;2022-07-23T03:17:45;98102.81;;;20.59;88.34
60589;BME280;46421;48.610;9.334;2022-07-23T03:20:10;98096.72;;;20.51;88.30
60589;BME280;46421;48.610;9.334;2022-07-23T03:22:35;98099.28;;;20.58;87.01
60589;BME280;46421;48.610;9.334;2022-07-23T03:25:01;98111.16;;;20.57;85.39
60589;BME280;46421;48.610;9.334;2022-07-23T03:27:28;98103.38;;;20.73;86.38
60589;BME280;46421;48.610;9.334;2022-07-23T03:29:56;98098.25;;;20.88;84.63
60589;BME280;46421;48.610;9.334;2022-07-23T03:32:21;98104.38;;;20.83;84.66
60589;BME280;46421;48.610;9.334;2022-07-23T03:34:48;98103.81;;;20.69;87.13
60589;BME280;46421;48.610;9.334;2022-07-23T03:37:13;98104.41;;;20.43;88.40
60589;BME280;46421;48.610;9.334;2022-07-23T03:39:39;98100.75;;;20.37;87.12
60589;BME280;46421;48.610;9.334;2022-07-23T03:42:05;98105.81;;;20.33;88.85
60589;BME280;46421;48.610;9.334;2022-07-23T03:44:30;98098.34;;;20.12;86.83
60589;BME280;46421;48.610;9.334;2022-07-23T03:46:55;98093.06;;;20.17;85.14
60589;BME280;46421;48.610;9.334;2022-07-23T03:49:20;98082.31;;;20.34;85.88
60589;BME280;46421;48.610;9.334;2022-07-23T03:51:46;98075.38;;;20.50;86.06
60589;BME280;46421;48.610;9.334;2022-07-23T03:54:11;98080.00;;;20.66;85.52
60589;BME280;46421;48.610;9.334;2022-07-23T03:56:37;98092.34;;;20.62;83.61
60589;BME280;46421;48.610;9.334;2022-07-23T03:59:02;98096.47;;;20.12;87.70
60589;BME280;46421;48.610;9.334;2022-07-23T04:01:27;98103.88;;;20.05;89.62
60589;BME280;46421;48.610;9.334;2022-07-23T04:03:53;98103.88;;;20.05;89.41
60589;BME280;46421;48.610;9.334;2022-07-23T04:06:18;98112.03;;;20.22;88.34
60589;BME280;46421;48.610;9.334;2022-07-23T04:08:43;98116.19;;;20.13;88.94
60589;BME280;46421;48.610;9.334;2022-07-23T04:11:09;98119.44;;;20.15;89.64
60589;BME280;46421;48.610;9.334;2022-07-23T04:13:34;98132.84;;;20.10;88.05
60589;BME280;46421;48.610;9.334;2022-07-23T04:15:59;98136.25;;;20.05;88.42
60589;BME280;46421;48.610;9.334;2022-07-23T04:18:25;98128.59;;;20.26;88.07
60589;BME280;46421;48.610;9.334;2022-07-23T04:20:51;98128.81;;;20.24;87.60
60589;BME280;46421;48.610;9.334;2022-07-23T04:23:16;98126.28;;;19.94;90.00
60589;BME280;46421;48.610;9.334;2022-07-23T04:25:41;98115.50;;;20.05;90.88
60589;BME280;46421;48.610;9.334;2022-07-23T04:28:07;98126.63;;;20.21;89.71
60589;BME280;46421;48.610;9.334;2022-07-23T04:30:32;98128.16;;;20.05;89.67
60589;BME280;46421;48.610;9.334;2022-07-23T04:32:57;98121.13;;;19.92;91.37
60589;BME280;46421;48.610;9.334;2022-07-23T04:35:22;98132.75;;;19.93;90.99
60589;BME280;46421;48.610;9.334;2022-07-23T04:37:48;98137.09;;;20.05;90.71
60589;BME280;46421;48.610;9.334;2022-07-23T04:40:13;98145.63;;;19.90;91.60
60589;BME280;46421;48.610;9.334;2022-07-23T04:42:39;98144.59;;;19.92;91.67
60589;BME280;46421;48.610;9.334;2022-07-23T04:45:05;98142.34;;;20.00;91.28
60589;BME280;46421;48.610;9.334;2022-07-23T04:47:30;98136.00;;;19.95;91.71
60589;BME280;46421;48.610;9.334;2022-07-23T04:49:55;98125.34;;;20.12;91.59
60589;BME280;46421;48.610;9.334;2022-07-23T04:52:21;98137.06;;;20.29;89.39
60589;BME280;46421;48.610;9.334;2022-07-23T04:54:46;98124.44;;;20.47;88.95
60589;BME280;46421;48.610;9.334;2022-07-23T04:57:11;98131.38;;;20.43;87.57
60589;BME280;46421;48.610;9.334;2022-07-23T04:59:36;98125.25;;;20.59;86.85
60589;BME280;46421;48.610;9.334;2022-07-23T05:02:02;98124.03;;;20.67;86.19
60589;BME280;46421;48.610;9.334;2022-07-23T05:04:27;98122.78;;;20.98;83.74
60589;BME280;46421;48.610;9.334;2022-07-23T05:06:52;98121.81;;;21.39;82.06
60589;BME280;46421;48.610;9.334;2022-07-23T05:09:17;98126.38;;;21.67;82.06
60589;BME280;46421;48.610;9.334;2022-07-23T05:11:43;98130.16;;;21.83;78.32
60589;BME280;46421;48.610;9.334;2022-07-23T05:14:08;98128.84;;;21.69;80.28
60589;BME280;46421;48.610;9.334;2022-07-23T05:16:33;98134.47;;;21.33;82.39
60589;BME280;46421;48.610;9.334;2022-07-23T05:18:59;98132.81;;;21.15;85.19
60589;BME280;46421;48.610;9.334;2022-07-23T05:21:24;98137.84;;;21.11;82.12
60589;BME280;46421;48.610;9.334;2022-07-23T05:23:49;98144.94;;;21.00;84.00
60589;BME280;46421;48.610;9.334;2022-07-23T05:26:14;98140.03;;;20.97;83.95
60589;BME280;46421;48.610;9.334;2022-07-23T05:28:40;98133.94;;;21.19;83.33
60589;BME280;46421;48.610;9.334;2022-07-23T05:31:05;98135.78;;;21.30;82.84
60589;BME280;46421;48.610;9.334;2022-07-23T05:33:30;98129.63;;;21.52;83.68
60589;BME280;46421;48.610;9.334;2022-07-23T05:36:02;98120.03;;;21.95;81.94
60589;BME280;46421;48.610;9.334;2022-07-23T05:38:28;98136.69;;;22.26;80.65
60589;BME280;46421;48.610;9.334;2022-07-23T05:40:53;98132.41;;;22.48;78.54
60589;BME280;46421;48.610;9.334;2022-07-23T05:43:19;98143.06;;;22.37;76.70
60589;BME280;46421;48.610;9.334;2022-07-23T05:45:44;98141.00;;;22.22;77.31
60589;BME280;46421;48.610;9.334;2022-07-23T05:48:09;98140.03;;;22.11;76.76
60589;BME280;46421;48.610;9.334;2022-07-23T05:50:35;98135.84;;;22.04;77.31
60589;BME280;46421;48.610;9.334;2022-07-23T05:53:00;98144.66;;;22.16;79.32
60589;BME280;46421;48.610;9.334;2022-07-23T05:55:25;98144.75;;;22.21;77.83
60589;BME280;46421;48.610;9.334;2022-07-23T05:57:51;98135.75;;;22.16;78.62
60589;BME280;46421;48.610;9.334;2022-07-23T06:00:16;98143.59;;;22.17;76.56
60589;BME280;46421;48.610;9.334;2022-07-23T06:02:41;98141.94;;;22.33;77.84
60589;BME280;46421;48.610;9.334;2022-07-23T06:05:07;98142.34;;;22.42;77.92
60589;BME280;46421;48.610;9.334;2022-07-23T06:07:32;98149.59;;;22.58;77.42
60589;BME280;46421;48.610;9.334;2022-07-23T06:09:57;98148.16;;;23.23;78.33
60589;BME280;46421;48.610;9.334;2022-07-23T06:12:23;98139.16;;;23.49;71.75
60589;BME280;46421;48.610;9.334;2022-07-23T06:14:48;98135.63;;;23.49;68.47
60589;BME280;46421;48.610;9.334;2022-07-23T06:17:13;98143.06;;;23.64;66.98
60589;BME280;46421;48.610;9.334;2022-07-23T06:19:39;98137.13;;;23.67;70.96
60589;BME280;46421;48.610;9.334;2022-07-23T06:22:04;98129.25;;;24.03;67.36
60589;BME280;46421;48.610;9.334;2022-07-23T06:24:29;98129.91;;;24.21;64.85
60589;BME280;46421;48.610;9.334;2022-07-23T06:26:55;98119.22;;;24.57;65.34
60589;BME280;46421;48.610;9.334;2022-07-23T06:29:20;98114.16;;;24.86;66.15
60589;BME280;46421;48.610;9.334;2022-07-23T06:31:45;98109.56;;;24.87;59.57
60589;BME280;46421;48.610;9.334;2022-07-23T06:34:10;98106.28;;;24.85;59.35
60589;BME280;46421;48.610;9.334;2022-07-23T06:36:36;98111.75;;;25.21;57.49
60589;BME280;46421;48.610;9.334;2022-07-23T06:39:01;98119.41;;;25.19;56.89
60589;BME280;46421;48.610;9.334;2022-07-23T06:41:26;98135.50;;;25.62;56.62
60589;BME280;46421;48.610;9.334;2022-07-23T06:43:52;98135.38;;;26.39;57.24
60589;BME280;46421;48.610;9.334;2022-07-23T06:46:17;98138.63;;;26.46;52.38
60589;BME280;46421;48.610;9.334;2022-07-23T06:48:42;98134.66;;;27.23;53.60
60589;BME280;46421;48.610;9.334;2022-07-23T06:51:08;98141.72;;;28.52;51.13
60589;BME280;46421;48.610;9.334;2022-07-23T06:53:33;98138.78;;;28.68;47.45
60589;BME280;46421;48.610;9.334;2022-07-23T06:55:58;98139.94;;;29.05;48.28
60589;BME280;46421;48.610;9.334;2022-07-23T06:58:23;98139.69;;;30.53;42.88
60589;BME280;46421;48.610;9.334;2022-07-23T07:00:49;98143.47;;;29.96;43.16
60589;BME280;46421;48.610;9.334;2022-07-23T07:03:14;98154.06;;;30.44;44.48
60589;BME280;46421;48.610;9.334;2022-07-23T07:05:41;98151.44;;;30.39;43.76
60589;BME280;46421;48.610;9.334;2022-07-23T07:08:06;98155.53;;;30.56;43.43
60589;BME280;46421;48.610;9.334;2022-07-23T07:10:32;98161.88;;;30.37;42.96
60589;BME280;46421;48.610;9.334;2022-07-23T07:12:57;98164.38;;;28.53;46.41
60589;BME280;46421;48.610;9.334;2022-07-23T07:15:22;98169.72;;;27.51;52.28
60589;BME280;46421;48.610;9.334;2022-07-23T07:17:48;98182.88;;;28.61;47.66
60589;BME280;46421;48.610;9.334;2022-07-23T07:20:13;98193.22;;;27.41;51.82
60589;BME280;46421;48.610;9.334;2022-07-23T07:22:38;98199.91;;;26.49;55.76
60589;BME280;46421;48.610;9.334;2022-07-23T07:25:04;98203.00;;;25.91;57.35
60589;BME280;46421;48.610;9.334;2022-07-23T07:27:30;98200.53;;;25.94;59.37
60589;BME280;46421;48.610;9.334;2022-07-23T07:29:55;98199.34;;;26.52;58.58
60589;BME280;46421;48.610;9.334;2022-07-23T07:32:20;98195.09;;;28.20;51.78
60589;BME280;46421;48.610;9.334;2022-07-23T07:34:46;98192.16;;;30.32;46.64
60589;BME280;46421;48.610;9.334;2022-07-23T07:37:11;98191.72;;;32.36;44.23
60589;BME280;46421;48.610;9.334;2022-07-23T07:39:36;98196.66;;;33.32;42.18
60589;BME280;46421;48.610;9.334;2022-07-23T07:42:02;98198.16;;;34.30;35.89
60589;BME280;46421;48.610;9.334;2022-07-23T07:44:27;98201.31;;;33.05;37.28
60589;BME280;46421;48.610;9.334;2022-07-23T07:46:52;98201.72;;;32.32;40.36
60589;BME280;46421;48.610;9.334;2022-07-23T07:49:17;98208.66;;;33.63;36.19
60589;BME280;46421;48.610;9.334;2022-07-23T07:51:43;98219.91;;;32.42;40.26
60589;BME280;46421;48.610;9.334;2022-07-23T07:54:08;98218.88;;;30.40;42.71
60589;BME280;46421;48.610;9.334;2022-07-23T07:56:33;98214.22;;;29.37;46.86
60589;BME280;46421;48.610;9.334;2022-07-23T07:58:59;98213.16;;;28.70;46.41
60589;BME280;46421;48.610;9.334;2022-07-23T08:01:24;98214.06;;;28.60;47.90
60589;BME280;46421;48.610;9.334;2022-07-23T08:03:49;98216.50;;;28.62;48.88
60589;BME280;46421;48.610;9.334;2022-07-23T08:06:14;98212.19;;;28.55;50.83
60589;BME280;46421;48.610;9.334;2022-07-23T08:08:40;98224.56;;;28.23;46.72
60589;BME280;46421;48.610;9.334;2022-07-23T08:11:05;98223.22;;;28.21;48.07
60589;BME280;46421;48.610;9.334;2022-07-23T08:13:30;98228.69;;;28.21;50.23
60589;BME280;46421;48.610;9.334;2022-07-23T08:15:55;98228.94;;;27.90;49.84
60589;BME280;46421;48.610;9.334;2022-07-23T08:18:21;98222.28;;;28.31;49.57
60589;BME280;46421;48.610;9.334;2022-07-23T08:20:46;98226.13;;;29.65;45.24
60589;BME280;46421;48.610;9.334;2022-07-23T08:23:11;98224.75;;;32.45;38.95
60589;BME280;46421;48.610;9.334;2022-07-23T08:25:39;98227.28;;;34.01;38.13
60589;BME280;46421;48.610;9.334;2022-07-23T08:28:07;98232.34;;;33.64;34.52
60589;BME280;46421;48.610;9.334;2022-07-23T08:30:34;98232.31;;;33.99;36.21
60589;BME280;46421;48.610;9.334;2022-07-23T08:33:08;98229.91;;;34.92;35.28
60589;BME280;46421;48.610;9.334;2022-07-23T08:35:36;98224.00;;;36.21;32.19
60589;BME280;46421;48.610;9.334;2022-07-23T08:38:04;98221.66;;;36.69;30.70
60589;BME280;46421;48.610;9.334;2022-07-23T08:40:32;98219.47;;;36.50;30.12
60589;BME280;46421;48.610;9.334;2022-07-23T08:42:58;98217.28;;;36.68;30.07
60589;BME280;46421;48.610;9.334;2022-07-23T08:45:25;98226.72;;;34.73;32.15
60589;BME280;46421;48.610;9.334;2022-07-23T08:47:56;98226.34;;;34.53;32.34
60589;BME280;46421;48.610;9.334;2022-07-23T08:50:23;98222.22;;;35.91;31.14
60589;BME280;46421;48.610;9.334;2022-07-23T08:52:49;98231.03;;;35.85;32.42
60589;BME280;46421;48.610;9.334;2022-07-23T08:55:17;98240.50;;;34.34;32.85
60589;BME280;46421;48.610;9.334;2022-07-23T08:57:42;98244.06;;;31.63;39.43
60589;BME280;46421;48.610;9.334;2022-07-23T09:00:08;98235.16;;;30.51;39.11
60589;BME280;46421;48.610;9.334;2022-07-23T09:02:41;98232.34;;;30.37;39.53
60589;BME280;46421;48.610;9.334;2022-07-23T09:05:08;98239.00;;;29.84;39.83
60589;BME280;46421;48.610;9.334;2022-07-23T09:07:34;98227.53;;;29.24;43.47
60589;BME280;46421;48.610;9.334;2022-07-23T09:10:08;98232.13;;;29.67;44.54
60589;BME280;46421;48.610;9.334;2022-07-23T09:12:34;98234.53;;;29.55;44.06
60589;BME280;46421;48.610;9.334;2022-07-23T09:15:08;98216.13;;;30.40;40.98
60589;BME280;46421;48.610;9.334;2022-07-23T09:17:39;98220.56;;;31.71;38.18
60589;BME280;46421;48.610;9.334;2022-07-23T09:20:15;98212.78;;;30.99;42.04
60589;BME280;46421;48.610;9.334;2022-07-23T09:22:45;98215.78;;;33.81;37.60
60589;BME280;46421;48.610;9.334;2022-07-23T09:25:14;98215.56;;;32.58;36.84
60589;BME280;46421;48.610;9.334;2022-07-23T09:27:46;98219.19;;;33.87;33.82
60589;BME280;46421;48.610;9.334;2022-07-23T09:30:12;98214.91;;;34.72;32.26
60589;BME280;46421;48.610;9.334;2022-07-23T09:32:41;98209.00;;;33.87;33.33
60589;BME280;46421;48.610;9.334;2022-07-23T09:35:07;98211.91;;;33.56;34.43
60589;BME280;46421;48.610;9.334;2022-07-23T09:37:33;98218.97;;;34.18;33.12
60589;BME280;46421;48.610;9.334;2022-07-23T09:40:07;98217.84;;;33.14;33.69
60589;BME280;46421;48.610;9.334;2022-07-23T09:42:32;98216.03;;;32.52;35.39
60589;BME280;46421;48.610;9.334;2022-07-23T09:44:58;98218.59;;;32.79;36.59
60589;BME280;46421;48.610;9.334;2022-07-23T09:47:26;98213.59;;;31.50;37.18
60589;BME280;46421;48.610;9.334;2022-07-23T09:50:04;98215.75;;;30.75;38.93
60589;BME280;46421;48.610;9.334;2022-07-23T09:52:32;98217.56;;;30.94;40.87
60589;BME280;46421;48.610;9.334;2022-07-23T09:54:59;98202.97;;;33.24;34.74
60589;BME280;46421;48.610;9.334;2022-07-23T09:57:25;98210.34;;;35.06;32.28
60589;BME280;46421;48.610;9.334;2022-07-23T09:59:51;98204.09;;;32.56;35.28
60589;BME280;46421;48.610;9.334;2022-07-23T10:02:17;98212.38;;;33.84;34.91
60589;BME280;46421;48.610;9.334;2022-07-23T10:04:42;98204.94;;;34.89;31.70
60589;BME280;46421;48.610;9.334;2022-07-23T10:07:09;98207.53;;;33.46;33.94
60589;BME280;46421;48.610;9.334;2022-07-23T10:09:36;98210.75;;;33.83;33.14
60589;BME280;46421;48.610;9.334;2022-07-23T10:12:04;98203.03;;;35.53;29.67
60589;BME280;46421;48.610;9.334;2022-07-23T10:14:30;98207.34;;;35.63;34.33
60589;BME280;46421;48.610;9.334;2022-07-23T10:16:55;98217.03;;;35.90;30.17
60589;BME280;46421;48.610;9.334;2022-07-23T10:19:21;98219.16;;;37.54;29.98
60589;BME280;46421;48.610;9.334;2022-07-23T10:21:50;98216.09;;;38.16;26.65
60589;BME280;46421;48.610;9.334;2022-07-23T10:29:51;98209.34;;;37.73;30.86
60589;BME280;46421;48.610;9.334;2022-07-23T10:32:34;98206.44;;;37.53;28.84
60589;BME280;46421;48.610;9.334;2022-07-23T10:35:22;98201.59;;;36.47;31.04
60589;BME280;46421;48.610;9.334;2022-07-23T10:37:55;98203.16;;;34.36;31.85
60589;BME280;46421;48.610;9.334;2022-07-23T10:40:22;98199.47;;;36.19;33.15
60589;BME280;46421;48.610;9.334;2022-07-23T10:42:50;98209.53;;;35.27;30.70
60589;BME280;46421;48.610;9.334;2022-07-23T10:45:41;98212.78;;;32.50;37.57
60589;BME280;46421;48.610;9.334;2022-07-23T10:48:18;98206.78;;;32.16;35.09
60589;BME280;46421;48.610;9.334;2022-07-23T10:51:05;98204.41;;;33.13;34.54
60589;BME280;46421;48.610;9.334;2022-07-23T10:53:54;98192.44;;;34.82;32.12
60589;BME280;46421;48.610;9.334;2022-07-23T10:57:04;98196.63;;;36.78;29.66
60589;BME280;46421;48.610;9.334;2022-07-23T10:59:29;98200.19;;;36.78;28.48
60589;BME280;46421;48.610;9.334;2022-07-23T11:02:21;98201.50;;;36.93;28.47
60589;BME280;46421;48.610;9.334;2022-07-23T11:04:51;98195.16;;;37.33;28.70
60589;BME280;46421;48.610;9.334;2022-07-23T11:07:16;98190.06;;;36.95;27.69
60589;BME280;46421;48.610;9.334;2022-07-23T11:09:43;98186.78;;;37.17;27.59
60589;BME280;46421;48.610;9.334;2022-07-23T11:15:15;98185.88;;;37.54;30.39
60589;BME280;46421;48.610;9.334;2022-07-23T11:22:36;98177.22;;;33.11;33.81
60589;BME280;46421;48.610;9.334;2022-07-23T11:25:02;98176.19;;;32.09;36.42
60589;BME280;46421;48.610;9.334;2022-07-23T11:27:41;98171.47;;;31.32;38.07
60589;BME280;46421;48.610;9.334;2022-07-23T11:30:08;98179.16;;;31.44;37.29
60589;BME280;46421;48.610;9.334;2022-07-23T11:32:35;98181.06;;;31.44;39.78
60589;BME280;46421;48.610;9.334;2022-07-23T11:35:01;98186.34;;;31.03;38.69
60589;BME280;46421;48.610;9.334;2022-07-23T11:37:34;98177.38;;;30.00;40.60
60589;BME280;46421;48.610;9.334;2022-07-23T11:40:01;98182.56;;;30.02;40.22
60589;BME280;46421;48.610;9.334;2022-07-23T11:42:27;98180.88;;;30.89;39.76
60589;BME280;46421;48.610;9.334;2022-07-23T11:44:52;98189.34;;;33.19;36.49
60589;BME280;46421;48.610;9.334;2022-07-23T11:47:23;98184.66;;;32.53;34.22
60589;BME280;46421;48.610;9.334;2022-07-23T11:49:53;98184.50;;;33.16;37.04
60589;BME280;46421;48.610;9.334;2022-07-23T11:52:20;98178.81;;;33.30;36.10
60589;BME280;46421;48.610;9.334;2022-07-23T11:57:27;98185.91;;;34.10;35.71
60589;BME280;46421;48.610;9.334;2022-07-23T11:59:55;98176.81;;;34.57;34.54
60589;BME280;46421;48.610;9.334;2022-07-23T12:02:21;98168.63;;;33.56;35.44
60589;BME280;46421;48.610;9.334;2022-07-23T12:04:49;98170.38;;;34.05;33.54
60589;BME280;46421;48.610;9.334;2022-07-23T12:07:34;98171.75;;;34.20;32.92
60589;BME280;46421;48.610;9.334;2022-07-23T12:10:04;98160.56;;;35.57;31.67
60589;BME280;46421;48.610;9.334;2022-07-23T12:12:59;98160.16;;;36.14;29.72
60589;BME280;46421;48.610;9.334;2022-07-23T12:15:31;98147.94;;;36.27;28.53
60589;BME280;46421;48.610;9.334;2022-07-23T12:17:57;98147.50;;;36.62;31.01
60589;BME280;46421;48.610;9.334;2022-07-23T12:20:29;98153.59;;;35.51;31.21
60589;BME280;46421;48.610;9.334;2022-07-23T12:22:57;98146.88;;;34.67;32.70
60589;BME280;46421;48.610;9.334;2022-07-23T12:25:25;98154.69;;;34.27;33.11
60589;BME280;46421;48.610;9.334;2022-07-23T12:30:34;98153.41;;;35.35;29.85
60589;BME280;46421;48.610;9.334;2022-07-23T12:33:02;98149.28;;;36.08;32.15
60589;BME280;46421;48.610;9.334;2022-07-23T12:35:37;98152.91;;;36.34;27.73
60589;BME280;46421;48.610;9.334;2022-07-23T12:38:10;98163.56;;;37.22;30.69
60589;BME280;46421;48.610;9.334;2022-07-23T12:43:07;98157.72;;;34.43;31.68
60589;BME280;46421;48.610;9.334;2022-07-23T12:45:47;98163.25;;;35.24;30.35
60589;BME280;46421;48.610;9.334;2022-07-23T12:50:52;98150.97;;;35.55;30.63
60589;BME280;46421;48.610;9.334;2022-07-23T12:53:21;98149.94;;;35.93;33.18
60589;BME280;46421;48.610;9.334;2022-07-23T12:55:48;98154.69;;;33.62;33.08
60589;BME280;46421;48.610;9.334;2022-07-23T12:58:16;98156.44;;;33.84;32.78
60589;BME280;46421;48.610;9.334;2022-07-23T13:01:09;98145.91;;;32.81;33.07
60589;BME280;46421;48.610;9.334;2022-07-23T13:03:40;98153.56;;;33.28;33.64
60589;BME280;46421;48.610;9.334;2022-07-23T13:06:08;98153.22;;;31.59;38.47
60589;BME280;46421;48.610;9.334;2022-07-23T13:08:35;98160.28;;;29.56;39.06
60589;BME280;46421;48.610;9.334;2022-07-23T13:11:01;98166.06;;;29.55;41.44
60589;BME280;46421;48.610;9.334;2022-07-23T13:13:29;98157.13;;;30.71;39.39
60589;BME280;46421;48.610;9.334;2022-07-23T13:15:54;98161.09;;;30.65;37.48
60589;BME280;46421;48.610;9.334;2022-07-23T13:18:21;98157.31;;;30.47;41.62
60589;BME280;46421;48.610;9.334;2022-07-23T13:20:47;98155.81;;;30.54;40.60
60589;BME280;46421;48.610;9.334;2022-07-23T13:23:13;98153.13;;;30.07;39.29